Terminal Aerodrome Forecast
Issued by NWS Twin Cities, MN

Home | Current Version | Previous Version | Graphics & Text | Print | Product List | Glossary On
Versions: 1 2 3 4 5 6 7 8 9 10 11 12 13 14 15 16 17 18 19 20 21 22 23 24 25
000
FTUS43 KMPX 290500
TAFMSP
TAF
KMSP 290527Z 2906/3012 30004KT P6SM FEW070
     FM291500 31006KT P6SM SCT050
     FM291900 31011KT P6SM SCT050 BKN080
     FM300100 30004KT P6SM SKC=

USA.gov is the U.S. government's official web portal to all federal, state and local government web resources and services.